Time;durP1;ratioP1;P1;durP2;ratioP2;P2;SDS_P1;SDS_P2;PMS_P1;PMS_P2;Temp;Humidity;BMP_temperature;BMP_pressure;BME280_temperature;BME280_humidity;BME280_pressure;Samples;Min_cycle;Max_cycle;Signal;HPM_P1;HPM_P2
2022/03/31 00:01:33;;;;;;;2.70;2.50;;;18.30;50.20;19.30;99224.00;;;;4990237;28;20284;-50
2022/03/31 00:03:59;;;;;;;2.53;2.33;;;18.30;50.20;19.30;99228.00;;;;4990393;28;20652;-51
2022/03/31 00:06:25;;;;;;;2.70;2.50;;;18.30;50.20;19.30;99224.00;;;;4990120;28;20203;-50
2022/03/31 00:08:50;;;;;;;2.80;2.50;;;18.30;50.20;19.30;99237.00;;;;4989683;28;20679;-51
2022/03/31 00:11:18;;;;;;;2.50;2.30;;;18.30;50.30;19.30;99227.00;;;;4990362;28;20676;-51
2022/03/31 00:13:43;;;;;;;2.50;2.30;;;18.30;50.30;19.30;99231.00;;;;5004883;28;20229;-50
2022/03/31 00:16:10;;;;;;;2.30;2.10;;;18.30;50.30;19.20;99229.00;;;;5004845;28;20187;-50
2022/03/31 00:18:35;;;;;;;2.40;2.20;;;18.30;50.30;19.00;99218.00;;;;4990143;28;20199;-50
2022/03/31 00:21:01;;;;;;;2.40;2.20;;;18.20;50.20;19.20;99231.00;;;;4989806;28;20644;-50
2022/03/31 00:23:28;;;;;;;2.40;2.20;;;18.30;50.40;19.20;99216.00;;;;4989731;28;20571;-50
2022/03/31 00:25:54;;;;;;;2.57;2.37;;;18.20;50.30;19.20;99214.00;;;;4990446;28;20164;-50
2022/03/31 00:28:19;;;;;;;2.60;2.40;;;18.20;50.40;19.20;99217.00;;;;4989793;28;20199;-49
2022/03/31 00:30:45;;;;;;;2.53;2.30;;;18.20;50.50;19.20;99223.00;;;;4990289;28;20183;-50
2022/03/31 00:33:11;;;;;;;2.67;2.47;;;18.20;50.50;19.20;99213.00;;;;4990314;28;20187;-50
2022/03/31 00:35:37;;;;;;;2.40;2.20;;;18.20;50.50;19.20;99219.00;;;;4990574;28;20207;-50
2022/03/31 00:38:02;;;;;;;2.40;2.20;;;18.20;50.50;19.20;99215.00;;;;4991388;28;20220;-51
2022/03/31 00:40:30;;;;;;;2.47;2.27;;;18.10;50.50;19.10;99221.00;;;;4991259;28;20179;-51
2022/03/31 00:42:57;;;;;;;2.40;2.20;;;18.20;50.60;19.10;99203.00;;;;5004316;28;20218;-52
2022/03/31 00:45:25;;;;;;;2.67;2.47;;;18.10;50.60;19.10;99207.00;;;;4990076;28;20176;-52
2022/03/31 00:47:52;;;;;;;2.60;2.40;;;18.10;50.60;19.10;99203.00;;;;4989375;28;20183;-51
2022/03/31 00:50:17;;;;;;;2.40;2.20;;;18.10;50.60;19.10;99203.00;;;;4990005;28;20549;-50
2022/03/31 00:52:43;;;;;;;2.60;2.40;;;18.10;50.50;19.10;99203.00;;;;4989254;28;20224;-51
2022/03/31 00:55:11;;;;;;;2.23;2.13;;;18.10;50.60;19.10;99205.00;;;;4989501;28;20200;-51
2022/03/31 00:57:37;;;;;;;2.40;2.20;;;18.10;50.60;19.10;99199.00;;;;4989155;28;20178;-50
2022/03/31 01:00:07;;;;;;;2.77;2.23;;;18.10;50.60;19.10;99197.00;;;;4989331;28;20219;-50
2022/03/31 01:02:34;;;;;;;2.40;2.20;;;18.10;50.60;19.10;99199.00;;;;4989447;28;20247;-50
2022/03/31 01:05:02;;;;;;;2.50;2.30;;;18.10;50.60;19.10;99196.00;;;;5004481;28;20262;-51
2022/03/31 01:07:28;;;;;;;2.40;2.20;;;18.10;50.70;19.00;99186.00;;;;4989107;28;20178;-50
2022/03/31 01:09:57;;;;;;;2.50;2.30;;;18.00;50.60;19.00;99192.00;;;;4989416;28;20713;-52
2022/03/31 01:12:22;;;;;;;2.60;2.40;;;18.00;50.60;19.00;99190.00;;;;4989275;28;20212;-52
2022/03/31 01:15:07;;;;;;;2.50;2.30;;;18.00;50.60;19.00;99185.00;;;;4989346;28;20204;-52
2022/03/31 01:17:37;;;;;;;2.30;2.10;;;18.00;50.60;19.00;99183.00;;;;4988917;28;20166;-51
2022/03/31 01:20:05;;;;;;;2.50;2.30;;;18.00;50.70;19.00;99189.00;;;;4989604;28;20248;-52
2022/03/31 01:22:31;;;;;;;2.57;2.37;;;18.00;50.70;19.00;99179.00;;;;4989492;28;20204;-51
2022/03/31 01:24:58;;;;;;;2.47;2.27;;;17.90;50.70;19.00;99177.00;;;;4989311;28;20170;-51
2022/03/31 01:27:25;;;;;;;2.67;2.47;;;18.00;50.70;18.90;99174.00;;;;4988965;28;20201;-51
2022/03/31 01:29:54;;;;;;;2.37;2.17;;;18.00;50.70;18.90;99176.00;;;;5004203;28;20565;-51
2022/03/31 01:32:20;;;;;;;2.47;2.27;;;17.90;50.70;18.90;99164.00;;;;4988947;28;20180;-52
2022/03/31 01:34:46;;;;;;;2.70;2.30;;;17.90;50.70;18.90;99168.00;;;;4989246;28;20794;-50
2022/03/31 01:37:13;;;;;;;2.50;2.30;;;17.90;50.70;18.90;99161.00;;;;4988904;28;20213;-52
2022/03/31 01:39:39;;;;;;;2.80;2.40;;;17.90;50.70;18.90;99159.00;;;;4989757;28;20216;-52
2022/03/31 01:42:05;;;;;;;2.80;2.50;;;17.90;50.70;18.90;99158.00;;;;4989569;28;20206;-52
2022/03/31 01:44:32;;;;;;;2.90;2.67;;;17.90;50.70;18.90;99159.00;;;;4989617;28;20268;-51
2022/03/31 01:46:57;;;;;;;2.43;2.23;;;17.90;50.70;18.90;99151.00;;;;4988628;28;20182;-51
2022/03/31 01:49:23;;;;;;;2.57;2.37;;;17.90;50.70;18.90;99150.00;;;;4990027;28;20193;-51
2022/03/31 01:51:49;;;;;;;2.63;2.43;;;17.80;50.60;18.90;99147.00;;;;4990842;28;20520;-51
2022/03/31 01:54:14;;;;;;;2.60;2.40;;;17.80;50.60;18.80;99149.00;;;;5005656;28;20177;-51
2022/03/31 01:56:44;;;;;;;2.57;2.37;;;17.90;50.70;18.80;99144.00;;;;5007807;28;20239;-50
2022/03/31 01:59:10;;;;;;;3.13;2.20;;;17.80;50.60;18.80;99148.00;;;;4992985;28;20261;-50
2022/03/31 02:01:36;;;;;;;2.40;2.20;;;17.90;50.70;18.90;99137.00;;;;4993751;28;20743;-50
2022/03/31 02:04:01;;;;;;;3.27;2.37;;;17.80;50.50;18.90;99144.00;;;;5007754;28;20177;-51
2022/03/31 02:06:27;;;;;;;3.10;2.50;;;17.80;50.60;18.80;99145.00;;;;5007711;28;20213;-51
2022/03/31 02:08:56;;;;;;;3.43;2.30;;;17.80;50.60;18.80;99144.00;;;;4992148;28;20369;-52
2022/03/31 02:11:21;;;;;;;4.53;2.60;;;17.80;50.60;18.80;99145.00;;;;5007155;28;20187;-51
2022/03/31 02:13:47;;;;;;;3.03;2.53;;;17.80;50.50;18.80;99141.00;;;;4992189;28;20757;-51
2022/03/31 02:16:13;;;;;;;2.50;2.20;;;17.80;50.50;18.80;99075.00;;;;4992090;28;20180;-51
2022/03/31 02:18:39;;;;;;;2.93;2.50;;;17.80;50.50;18.80;99131.00;;;;5007039;28;20189;-50
2022/03/31 02:21:05;;;;;;;2.60;2.40;;;17.80;50.50;18.80;99141.00;;;;4992515;28;20172;-51
2022/03/31 02:23:30;;;;;;;2.80;2.40;;;17.70;50.30;18.80;99121.00;;;;4992041;28;20211;-51
2022/03/31 02:25:56;;;;;;;2.77;2.50;;;17.70;50.30;18.80;99130.00;;;;4992063;28;20178;-51
2022/03/31 02:28:22;;;;;;;2.50;2.30;;;17.70;50.30;18.80;99112.00;;;;4991600;28;20199;-51
2022/03/31 02:30:47;;;;;;;3.03;2.43;;;17.70;50.30;18.80;99111.00;;;;5006886;28;20175;-50
2022/03/31 02:33:13;;;;;;;3.00;2.67;;;17.70;50.20;18.80;99104.00;;;;4991834;28;20567;-51
2022/03/31 02:35:39;;;;;;;2.70;2.50;;;17.70;50.20;18.70;99120.00;;;;4992096;28;20181;-51
2022/03/31 02:38:05;;;;;;;3.97;2.50;;;17.70;50.20;18.70;99107.00;;;;4991507;28;20660;-51
2022/03/31 02:40:30;;;;;;;2.70;2.50;;;17.70;50.20;18.70;99110.00;;;;5006686;28;20664;-51
2022/03/31 02:42:56;;;;;;;3.70;2.87;;;17.60;50.20;18.70;99111.00;;;;4991589;28;20211;-51
2022/03/31 02:45:22;;;;;;;4.17;3.17;;;17.60;50.30;18.70;99100.00;;;;5006818;28;20269;-53
2022/03/31 02:47:48;;;;;;;3.20;2.90;;;17.60;50.40;18.70;99100.00;;;;4991727;28;20182;-51
2022/03/31 02:50:15;;;;;;;4.10;3.47;;;17.60;50.40;18.70;99093.00;;;;4991728;28;20633;-50
2022/03/31 02:55:25;;;;;;;5.00;3.60;;;17.60;50.50;18.70;99101.00;;;;4991629;28;20172;-51
2022/03/31 02:57:52;;;;;;;4.27;3.70;;;17.60;50.50;18.60;99095.00;;;;4991282;28;20617;-51
2022/03/31 03:00:18;;;;;;;4.20;3.80;;;17.60;50.40;18.60;99105.00;;;;4991355;28;20179;-49
2022/03/31 03:02:44;;;;;;;4.10;3.80;;;17.60;50.50;18.60;99100.00;;;;5006216;28;20812;-50
2022/03/31 03:05:10;;;;;;;4.27;3.40;;;17.50;50.50;18.50;99089.00;;;;4991401;28;20180;-51
2022/03/31 03:07:36;;;;;;;4.10;3.70;;;17.60;50.40;18.60;99102.00;;;;4989587;28;20170;-51
2022/03/31 03:10:01;;;;;;;4.50;3.57;;;17.50;50.30;18.50;99093.00;;;;4991121;28;20204;-50
2022/03/31 03:12:27;;;;;;;4.30;3.17;;;17.50;50.20;18.50;99076.00;;;;5006322;28;20205;-50
2022/03/31 03:14:53;;;;;;;4.27;3.40;;;17.50;50.10;18.50;99097.00;;;;4990997;28;20822;-51
2022/03/31 03:17:18;;;;;;;3.80;3.37;;;17.50;50.10;18.50;99093.00;;;;4990887;28;20183;-50
2022/03/31 03:19:44;;;;;;;3.83;3.20;;;17.50;50.00;18.50;99096.00;;;;4991342;28;20192;-50
2022/03/31 03:22:10;;;;;;;4.80;3.20;;;17.50;49.90;18.50;99090.00;;;;4991415;28;20216;-52
2022/03/31 03:24:35;;;;;;;3.27;3.00;;;17.50;50.00;18.50;99077.00;;;;4990838;28;20176;-51
2022/03/31 03:27:01;;;;;;;4.57;3.13;;;17.50;50.10;18.50;99097.00;;;;5003360;28;20231;-51
2022/03/31 03:29:27;;;;;;;3.70;3.30;;;17.50;50.00;18.50;99084.00;;;;4990559;28;20194;-50
2022/03/31 03:31:53;;;;;;;3.50;3.10;;;17.50;50.10;18.50;99084.00;;;;4990876;28;20176;-51
2022/03/31 03:34:19;;;;;;;3.80;3.00;;;17.50;50.10;18.50;99085.00;;;;4990793;28;20187;-51
2022/03/31 03:36:44;;;;;;;4.17;2.80;;;17.50;50.10;18.50;99076.00;;;;4990175;28;20176;-53
2022/03/31 03:39:14;;;;;;;3.60;2.80;;;17.50;50.20;18.50;99083.00;;;;5005754;28;20205;-50
2022/03/31 03:41:40;;;;;;;4.10;3.20;;;17.40;50.00;18.50;99087.00;;;;4990267;28;20221;-51
2022/03/31 03:44:06;;;;;;;3.87;3.10;;;17.40;50.00;18.50;99086.00;;;;4990521;28;20157;-52
2022/03/31 03:46:32;;;;;;;3.60;3.10;;;17.40;50.10;18.40;99090.00;;;;4988433;28;20590;-51
2022/03/31 03:48:58;;;;;;;3.83;3.00;;;17.40;50.10;18.40;99096.00;;;;4990275;28;20184;-50
2022/03/31 03:51:24;;;;;;;3.40;3.00;;;17.40;50.10;18.40;99086.00;;;;4990072;28;20223;-52
2022/03/31 03:53:51;;;;;;;2.90;2.60;;;17.40;50.20;18.40;99090.00;;;;4990181;28;20172;-54
2022/03/31 03:56:17;;;;;;;3.10;2.80;;;17.30;50.20;18.40;99096.00;;;;5004086;28;20172;-52
2022/03/31 03:58:42;;;;;;;3.20;2.90;;;17.40;50.20;18.40;99086.00;;;;4990040;28;20674;-52
2022/03/31 04:01:08;;;;;;;2.77;2.57;;;17.30;50.20;18.40;99089.00;;;;5005070;28;20172;-52
2022/03/31 04:03:35;;;;;;;4.07;2.80;;;17.40;50.20;18.40;99100.00;;;;4990172;28;20200;-52
2022/03/31 04:06:00;;;;;;;3.00;2.73;;;17.30;50.20;18.40;99088.00;;;;4988910;28;20168;-52
2022/03/31 04:08:26;;;;;;;3.20;2.77;;;17.30;50.40;18.40;99081.00;;;;5004828;28;20224;-52
2022/03/31 04:10:52;;;;;;;4.43;2.90;;;17.30;50.30;18.30;99086.00;;;;4989530;28;20188;-52
2022/03/31 04:13:17;;;;;;;2.93;2.73;;;17.30;50.30;18.30;99077.00;;;;4989893;28;20173;-52
2022/03/31 04:15:43;;;;;;;2.90;2.70;;;17.30;50.30;18.30;99083.00;;;;5004963;28;20199;-51
2022/03/31 04:18:09;;;;;;;3.10;2.80;;;17.30;50.30;18.30;99056.00;;;;4991432;28;20433;-49
2022/03/31 04:20:35;;;;;;;3.03;2.80;;;17.20;50.30;18.30;99074.00;;;;5005152;28;20176;-52
2022/03/31 04:23:01;;;;;;;3.63;2.73;;;17.20;50.30;18.30;99083.00;;;;4989534;28;20199;-51
2022/03/31 04:25:27;;;;;;;2.90;2.70;;;17.20;50.30;18.30;99075.00;;;;4989340;28;20173;-51
2022/03/31 04:27:52;;;;;;;3.10;2.80;;;17.20;50.30;18.30;99077.00;;;;4989107;28;20172;-52
2022/03/31 04:30:20;;;;;;;3.27;2.97;;;17.20;50.30;18.30;99076.00;;;;4989994;28;20168;-52
2022/03/31 04:32:47;;;;;;;4.03;2.83;;;17.20;50.30;18.30;99081.00;;;;4989668;28;20171;-52
2022/03/31 04:35:12;;;;;;;3.03;2.77;;;17.10;50.30;18.20;99076.00;;;;4989445;28;20169;-51
2022/03/31 04:37:38;;;;;;;3.00;2.80;;;17.20;50.40;18.20;99080.00;;;;4988923;28;20199;-51
2022/03/31 04:40:05;;;;;;;3.00;2.70;;;17.20;50.30;18.20;99071.00;;;;4989322;28;20196;-51
2022/03/31 04:42:31;;;;;;;3.17;2.70;;;17.10;50.30;18.20;99071.00;;;;4989287;28;20359;-53
2022/03/31 04:44:57;;;;;;;3.03;2.73;;;17.10;50.20;18.20;99081.00;;;;4989183;28;20172;-52
2022/03/31 04:47:23;;;;;;;3.20;2.90;;;17.10;50.20;18.20;99006.00;;;;4988958;28;20251;-52
2022/03/31 04:49:49;;;;;;;2.90;2.57;;;17.10;50.30;18.20;99075.00;;;;5004556;28;20268;-53
2022/03/31 04:52:14;;;;;;;3.10;2.80;;;17.10;50.20;18.20;99075.00;;;;5004814;28;20176;-52
2022/03/31 04:54:43;;;;;;;2.93;2.73;;;17.10;50.20;18.10;99070.00;;;;4989181;28;20180;-53
2022/03/31 04:57:14;;;;;;;3.10;2.90;;;17.10;50.20;18.10;99076.00;;;;4988802;28;20187;-50
2022/03/31 04:59:40;;;;;;;2.80;2.57;;;17.10;50.30;18.10;99081.00;;;;5006599;28;20337;-50
2022/03/31 05:02:06;;;;;;;2.60;2.40;;;17.10;50.30;18.10;99083.00;;;;4991447;28;20188;-51
2022/03/31 05:04:32;;;;;;;3.20;2.90;;;17.10;50.20;18.10;99086.00;;;;4990422;28;20776;-53
2022/03/31 05:06:58;;;;;;;3.00;2.80;;;17.10;50.20;18.10;99084.00;;;;4989078;28;20179;-52
2022/03/31 05:09:24;;;;;;;2.80;2.60;;;17.10;50.20;18.10;99081.00;;;;4989214;28;20215;-51
2022/03/31 05:11:50;;;;;;;2.93;2.73;;;17.00;50.20;18.10;99074.00;;;;5004376;28;20180;-51
2022/03/31 05:14:15;;;;;;;4.17;2.90;;;17.00;50.30;18.10;99075.00;;;;4989160;28;20177;-51
2022/03/31 05:16:41;;;;;;;3.57;2.93;;;17.00;50.30;18.10;99073.00;;;;4988656;28;20188;-50
2022/03/31 05:19:07;;;;;;;2.70;2.50;;;17.00;50.20;18.10;99073.00;;;;4990514;28;20669;-52
2022/03/31 05:21:33;;;;;;;3.20;2.90;;;17.00;50.30;18.00;99072.00;;;;4987964;28;20169;-51
2022/03/31 05:23:59;;;;;;;3.03;2.83;;;17.00;50.30;18.00;99077.00;;;;4988993;28;20850;-51
2022/03/31 05:26:24;;;;;;;2.80;2.60;;;17.00;50.30;18.00;99070.00;;;;5004048;28;20161;-52
2022/03/31 05:28:50;;;;;;;2.90;2.70;;;16.90;50.20;18.00;99071.00;;;;5003963;28;20188;-51
2022/03/31 05:31:16;;;;;;;3.10;2.80;;;16.90;50.30;18.00;99072.00;;;;4991457;28;20164;-51
2022/03/31 05:33:41;;;;;;;2.70;2.50;;;16.90;50.20;18.00;99062.00;;;;4992865;28;20680;-51
2022/03/31 05:36:07;;;;;;;3.03;2.70;;;16.90;50.30;18.00;99059.00;;;;4992445;28;20176;-52
2022/03/31 05:38:33;;;;;;;3.10;2.90;;;16.90;50.40;18.00;99060.00;;;;4993147;28;20582;-52
2022/03/31 05:40:59;;;;;;;3.00;2.70;;;16.90;50.50;18.00;98997.00;;;;5007706;28;20165;-52
2022/03/31 05:43:24;;;;;;;3.13;2.60;;;16.90;50.50;18.00;99060.00;;;;4992486;28;20192;-52
2022/03/31 05:45:50;;;;;;;5.47;2.70;;;16.90;51.00;17.90;99061.00;;;;4992693;28;20179;-52
2022/03/31 05:48:16;;;;;;;2.97;2.63;;;16.90;50.30;17.90;99060.00;;;;4992734;28;20192;-52
2022/03/31 05:50:42;;;;;;;4.10;3.03;;;16.90;50.30;17.90;99062.00;;;;4992517;28;20563;-51
2022/03/31 05:53:08;;;;;;;3.50;3.00;;;16.90;50.30;17.90;99061.00;;;;4992255;28;20654;-52
2022/03/31 05:55:34;;;;;;;5.13;2.87;;;16.90;50.40;17.90;99055.00;;;;4994035;28;20187;-52
2022/03/31 05:57:59;;;;;;;3.20;2.90;;;16.80;50.20;17.90;99063.00;;;;4992265;28;20752;-51
2022/03/31 06:00:25;;;;;;;3.03;2.70;;;16.80;50.20;17.90;99049.00;;;;4992232;28;20547;-51
2022/03/31 06:02:53;;;;;;;3.93;2.70;;;16.80;50.20;17.90;99052.00;;;;5007130;28;20200;-52
2022/03/31 06:05:19;;;;;;;3.40;2.87;;;16.80;50.10;17.90;99060.00;;;;5006832;28;20169;-51
2022/03/31 06:07:45;;;;;;;3.73;2.83;;;16.80;50.20;17.90;99052.00;;;;4991660;28;20661;-52
2022/03/31 06:10:11;;;;;;;2.57;2.37;;;16.80;50.10;17.80;99050.00;;;;4992124;28;20661;-52
2022/03/31 06:12:37;;;;;;;3.13;2.60;;;16.80;50.10;17.80;99054.00;;;;4992191;28;20169;-52
2022/03/31 06:15:04;;;;;;;3.40;3.10;;;16.80;50.10;17.80;99054.00;;;;5007017;28;20176;-51
2022/03/31 06:17:30;;;;;;;3.10;2.80;;;16.80;50.10;17.80;99060.00;;;;4991560;28;20187;-52
2022/03/31 06:19:56;;;;;;;2.83;2.57;;;16.80;50.10;17.80;99056.00;;;;5007024;28;20204;-51
2022/03/31 06:22:22;;;;;;;3.03;2.80;;;16.80;50.20;17.80;99051.00;;;;4991900;28;20184;-52
2022/03/31 06:24:48;;;;;;;2.70;2.50;;;16.70;50.10;17.80;99054.00;;;;4991906;28;20176;-51
2022/03/31 06:27:13;;;;;;;2.83;2.63;;;16.70;50.10;17.80;99047.00;;;;4991382;28;20165;-51
2022/03/31 06:29:41;;;;;;;3.20;2.50;;;16.70;50.20;17.80;99043.00;;;;4992041;28;20833;-51
2022/03/31 06:32:08;;;;;;;3.00;2.80;;;16.70;50.10;17.80;99051.00;;;;5007264;28;20176;-52
2022/03/31 06:34:36;;;;;;;3.33;2.60;;;16.70;50.20;17.80;99056.00;;;;4991825;28;20175;-50
2022/03/31 06:37:01;;;;;;;3.03;2.60;;;16.70;50.50;17.80;99048.00;;;;5006054;28;20169;-51
2022/03/31 06:39:27;;;;;;;4.63;2.83;;;16.70;50.60;17.70;99052.00;;;;5006904;28;20205;-51
2022/03/31 06:41:53;;;;;;;3.33;3.00;;;16.70;50.50;17.70;99054.00;;;;4991261;28;20200;-51
2022/03/31 06:44:21;;;;;;;3.87;2.70;;;16.70;50.50;17.70;99047.00;;;;5006540;28;20180;-51
2022/03/31 06:46:46;;;;;;;5.03;2.90;;;16.70;50.50;17.70;99050.00;;;;4991159;28;20177;-50
2022/03/31 06:49:12;;;;;;;3.70;2.70;;;16.70;50.40;17.70;99053.00;;;;4991305;28;20676;-50
2022/03/31 06:51:38;;;;;;;5.80;2.83;;;16.70;50.50;17.70;99057.00;;;;4991895;28;20168;-51
2022/03/31 06:54:04;;;;;;;2.83;2.60;;;16.70;50.50;17.70;99040.00;;;;4991006;28;20685;-50
2022/03/31 06:56:30;;;;;;;4.70;2.80;;;16.70;50.50;17.70;99049.00;;;;5005977;28;20660;-51
2022/03/31 06:58:56;;;;;;;3.17;2.57;;;16.70;50.50;17.70;99044.00;;;;4991178;28;20224;-49
2022/03/31 07:01:22;;;;;;;3.07;2.70;;;16.60;50.40;17.70;99049.00;;;;4990893;28;20175;-50
2022/03/31 07:03:48;;;;;;;5.07;2.67;;;16.70;50.50;17.70;99042.00;;;;4991326;28;20667;-50
2022/03/31 07:06:14;;;;;;;4.57;2.70;;;16.60;50.40;17.70;99041.00;;;;5006233;28;20235;-49
2022/03/31 07:08:40;;;;;;;4.77;2.90;;;16.60;50.40;17.70;99037.00;;;;4991214;28;20196;-50
2022/03/31 07:11:07;;;;;;;5.70;3.00;;;16.60;50.70;17.70;99036.00;;;;4991168;28;20184;-50
2022/03/31 07:13:33;;;;;;;2.90;2.70;;;16.60;50.60;17.70;99038.00;;;;4991302;28;20170;-49
2022/03/31 07:15:59;;;;;;;3.53;3.00;;;16.60;50.70;17.70;99039.00;;;;4990399;28;20165;-50
2022/03/31 07:18:24;;;;;;;3.30;3.00;;;16.60;50.70;17.70;99050.00;;;;4990712;28;20662;-51
2022/03/31 07:20:50;;;;;;;3.00;2.70;;;16.60;50.70;17.60;99039.00;;;;4990837;28;20252;-49
2022/03/31 07:23:23;;;;;;;3.00;2.80;;;16.60;50.70;17.60;99062.00;;;;4990759;28;20207;-50
2022/03/31 07:25:53;;;;;;;3.00;2.70;;;16.60;50.70;17.60;99041.00;;;;4990123;28;20244;-50
2022/03/31 07:28:19;;;;;;;3.97;3.10;;;16.60;50.80;17.60;99035.00;;;;5005507;28;20199;-49
2022/03/31 07:30:45;;;;;;;2.83;2.57;;;16.60;50.80;17.60;99048.00;;;;4990605;28;20771;-50
2022/03/31 07:33:11;;;;;;;4.33;2.80;;;16.60;51.10;17.60;99043.00;;;;5006104;28;20271;-50
2022/03/31 07:35:37;;;;;;;4.10;2.77;;;16.60;51.40;17.60;99053.00;;;;4992098;28;20180;-50
2022/03/31 07:38:04;;;;;;;3.80;2.53;;;16.80;51.20;17.60;99048.00;;;;4991052;28;20160;-50
2022/03/31 07:40:30;;;;;;;3.73;2.87;;;17.00;51.00;17.80;99042.00;;;;4990599;28;20175;-50
2022/03/31 07:42:56;;;;;;;2.70;2.50;;;17.30;50.70;17.90;99052.00;;;;5005421;28;20208;-50
2022/03/31 07:45:21;;;;;;;3.30;2.50;;;17.60;50.50;18.00;99049.00;;;;4989831;28;20157;-50
2022/03/31 07:47:47;;;;;;;3.23;2.70;;;17.90;50.00;18.20;99049.00;;;;4989966;28;20180;-51
2022/03/31 07:50:15;;;;;;;4.73;2.50;;;18.30;49.70;18.40;99051.00;;;;5004112;28;20869;-49
2022/03/31 07:52:41;;;;;;;3.30;2.57;;;18.50;49.40;18.50;99042.00;;;;4987244;28;20219;-49
2022/03/31 07:55:09;;;;;;;6.37;2.70;;;18.60;49.30;18.60;99037.00;;;;4988890;28;20183;-49
2022/03/31 07:57:35;;;;;;;3.40;2.40;;;18.70;49.20;18.70;99038.00;;;;5004951;28;20168;-50
2022/03/31 08:00:00;;;;;;;2.90;2.57;;;18.60;49.30;18.80;99037.00;;;;5005321;28;20706;-50
2022/03/31 08:02:26;;;;;;;2.90;2.50;;;18.70;49.80;18.80;99032.00;;;;4990464;28;20204;-49
2022/03/31 08:04:53;;;;;;;5.20;2.47;;;18.70;50.10;18.90;99025.00;;;;4990420;28;20168;-48
2022/03/31 08:07:19;;;;;;;3.47;2.60;;;18.70;50.20;18.90;99031.00;;;;4990234;28;20238;-50
2022/03/31 08:09:45;;;;;;;4.77;2.53;;;18.70;50.30;19.00;99027.00;;;;4991540;28;20282;-49
2022/03/31 08:12:11;;;;;;;2.60;2.40;;;18.70;50.50;19.00;99027.00;;;;5008905;28;20186;-50
2022/03/31 08:14:36;;;;;;;3.90;2.40;;;18.70;50.70;19.00;99032.00;;;;4992575;28;20590;-50
2022/03/31 08:17:02;;;;;;;2.80;2.30;;;18.60;50.90;19.10;99029.00;;;;5006240;28;20607;-50
2022/03/31 08:19:30;;;;;;;4.50;2.50;;;18.60;51.00;19.10;99034.00;;;;4991312;28;20199;-50
2022/03/31 08:21:56;;;;;;;4.73;2.47;;;18.60;51.00;19.10;99036.00;;;;4990241;28;20304;-50
2022/03/31 08:24:21;;;;;;;2.70;2.50;;;18.60;51.20;19.10;99027.00;;;;5005118;28;20259;-51
2022/03/31 08:26:47;;;;;;;3.93;2.40;;;18.60;51.40;19.10;99029.00;;;;4990515;28;20215;-50
2022/03/31 08:29:13;;;;;;;3.50;2.43;;;18.50;51.50;19.10;99029.00;;;;4989763;28;20566;-51
2022/03/31 08:31:38;;;;;;;3.20;2.50;;;18.50;51.60;19.10;99037.00;;;;4989859;28;20183;-51
2022/03/31 08:34:05;;;;;;;3.23;2.40;;;18.50;51.80;19.10;99040.00;;;;4989265;28;20176;-50
2022/03/31 08:36:31;;;;;;;2.60;2.40;;;18.50;51.90;19.10;99037.00;;;;4989662;28;20199;-50
2022/03/31 08:38:56;;;;;;;4.43;2.60;;;18.40;51.90;19.10;99034.00;;;;4988235;28;20689;-51
2022/03/31 08:41:24;;;;;;;2.97;2.40;;;18.40;52.10;19.10;99037.00;;;;4988792;28;20226;-50
2022/03/31 08:43:50;;;;;;;5.77;2.50;;;18.50;52.20;19.10;99033.00;;;;4988906;28;20206;-51
2022/03/31 08:46:15;;;;;;;5.73;2.60;;;18.40;52.20;19.00;99038.00;;;;4989934;28;20164;-49
2022/03/31 08:48:41;;;;;;;5.13;2.63;;;18.40;52.30;19.10;99048.00;;;;4989583;28;20249;-50
2022/03/31 08:51:07;;;;;;;3.57;2.27;;;18.40;52.40;19.00;99036.00;;;;4988352;28;20170;-51
2022/03/31 08:53:33;;;;;;;3.83;2.43;;;18.40;52.60;19.00;99057.00;;;;4988036;28;20199;-51
2022/03/31 08:55:59;;;;;;;6.40;2.40;;;18.30;52.70;19.00;99047.00;;;;4988910;28;20708;-50
2022/03/31 08:58:25;;;;;;;5.50;2.43;;;18.30;52.90;19.00;99057.00;;;;4989452;28;20733;-50
2022/03/31 09:00:52;;;;;;;4.67;2.40;;;18.30;52.90;19.00;99062.00;;;;4989938;28;20732;-50
2022/03/31 09:03:18;;;;;;;4.70;2.50;;;18.30;53.00;19.00;99059.00;;;;4989268;28;20278;-50
2022/03/31 09:05:54;;;;;;;5.13;2.63;;;18.30;53.20;19.00;99068.00;;;;4993461;28;20174;-50
2022/03/31 09:08:20;;;;;;;7.67;2.47;;;18.20;53.10;19.00;99054.00;;;;4993888;28;20197;-50
2022/03/31 09:10:49;;;;;;;3.13;2.50;;;18.30;53.20;19.00;99060.00;;;;4993729;28;20243;-50
2022/03/31 09:13:22;;;;;;;2.47;2.27;;;18.20;53.00;19.00;99064.00;;;;4993702;28;20184;-51
2022/03/31 09:16:01;;;;;;;4.30;2.30;;;18.20;52.90;18.90;99068.00;;;;4992510;28;20188;-50
2022/03/31 09:18:29;;;;;;;7.63;2.50;;;18.20;52.90;18.90;99058.00;;;;4860759;28;20601;-49
2022/03/31 09:20:57;;;;;;;7.17;2.73;;;18.10;52.80;18.90;99063.00;;;;4992939;28;20173;-50
2022/03/31 09:23:32;;;;;;;11.13;2.93;;;18.10;52.80;18.90;99070.00;;;;5004657;28;20238;-50
2022/03/31 09:26:09;;;;;;;9.40;3.00;;;18.00;52.70;18.80;99064.00;;;;5011980;28;20698;-50
2022/03/31 09:28:36;;;;;;;9.33;3.07;;;17.90;52.70;18.80;99059.00;;;;5012410;28;20203;-50
2022/03/31 09:31:02;;;;;;;4.70;3.00;;;18.00;52.80;18.80;99054.00;;;;5012367;28;20152;-50
2022/03/31 09:33:37;;;;;;;10.50;2.90;;;17.90;52.70;18.70;99050.00;;;;5012427;28;20183;-50
2022/03/31 09:36:07;;;;;;;5.53;3.10;;;17.90;52.70;18.70;99054.00;;;;4996597;28;20174;-51
2022/03/31 09:38:37;;;;;;;4.63;2.77;;;17.80;52.60;18.70;99057.00;;;;4992426;28;20220;-50
2022/03/31 09:41:20;;;;;;;6.17;3.13;;;17.80;52.70;18.70;99062.00;;;;4993072;28;20239;-50
2022/03/31 09:43:47;;;;;;;3.03;2.70;;;17.80;52.70;18.60;99059.00;;;;4994400;28;20197;-50
2022/03/31 09:46:18;;;;;;;5.70;2.87;;;17.80;52.70;18.60;99055.00;;;;4992487;28;20176;-50
2022/03/31 09:48:44;;;;;;;4.87;2.70;;;17.70;53.20;18.60;99061.00;;;;4992240;28;20217;-50
2022/03/31 09:51:10;;;;;;;10.53;3.20;;;17.70;52.60;18.60;99049.00;;;;4992375;28;20177;-50
2022/03/31 09:53:35;;;;;;;4.07;2.83;;;17.70;52.60;18.60;99058.00;;;;4992589;28;20190;-49
2022/03/31 09:56:01;;;;;;;5.33;2.90;;;17.70;52.70;18.50;99047.00;;;;4992512;28;20244;-50
2022/03/31 09:58:27;;;;;;;5.10;2.83;;;17.70;52.70;18.60;99068.00;;;;4992548;28;20263;-50
2022/03/31 10:00:53;;;;;;;5.97;2.87;;;17.80;52.50;18.60;99058.00;;;;4991149;28;20179;-50
2022/03/31 10:03:19;;;;;;;5.50;2.70;;;18.00;52.20;18.70;99041.00;;;;4991131;28;20617;-49
2022/03/31 10:05:45;;;;;;;3.50;2.70;;;18.30;51.80;18.80;99056.00;;;;4990778;28;20173;-49
2022/03/31 10:08:11;;;;;;;6.90;3.07;;;18.50;51.40;18.90;99058.00;;;;4974339;28;20263;-50
2022/03/31 10:10:38;;;;;;;4.97;2.77;;;18.70;51.30;19.00;99054.00;;;;4990833;28;20552;-48
2022/03/31 10:13:17;;;;;;;4.70;2.77;;;19.00;50.90;19.20;99060.00;;;;4981230;28;20234;-54
2022/03/31 10:15:43;;;;;;;10.97;2.73;;;19.20;50.50;19.40;99059.00;;;;4990074;28;20554;-50
2022/03/31 10:18:13;;;;;;;8.47;3.37;;;19.50;50.10;19.50;99059.00;;;;4900841;28;20206;-50
2022/03/31 10:20:38;;;;;;;9.50;3.00;;;19.80;50.10;19.70;99056.00;;;;4974399;28;20181;-50
2022/03/31 10:25:49;;;;;;;6.13;3.00;;;20.00;49.80;20.00;99047.00;;;;4972260;28;20168;-52
2022/03/31 10:28:17;;;;;;;13.67;2.70;;;20.00;49.80;20.10;99062.00;;;;4973055;28;20203;-51
2022/03/31 10:30:59;;;;;;;3.97;2.90;;;20.10;50.00;20.10;99047.00;;;;4972430;28;20161;-52
2022/03/31 10:33:37;;;;;;;4.30;3.07;;;20.00;50.00;20.20;99048.00;;;;4973848;28;20192;-50
2022/03/31 10:36:15;;;;;;;9.77;2.90;;;20.00;50.10;20.20;99041.00;;;;4985776;28;20268;-51
2022/03/31 10:38:59;;;;;;;4.63;2.80;;;20.00;50.00;20.30;99038.00;;;;4987250;28;20571;-52
2022/03/31 10:41:32;;;;;;;6.60;2.57;;;20.00;50.20;20.30;99041.00;;;;4972557;28;20672;-51
2022/03/31 10:43:58;;;;;;;4.47;2.60;;;20.00;50.20;20.30;99035.00;;;;4972583;28;20180;-51
2022/03/31 10:46:25;;;;;;;5.23;2.60;;;20.00;50.20;20.30;99032.00;;;;4971755;28;20545;-52
2022/03/31 10:48:53;;;;;;;6.40;2.73;;;20.00;50.20;20.30;99048.00;;;;4971787;28;20224;-53
2022/03/31 10:51:29;;;;;;;4.67;2.60;;;19.90;50.10;20.40;99037.00;;;;4972495;28;20181;-50
2022/03/31 10:53:54;;;;;;;4.27;2.67;;;19.90;50.30;20.40;99035.00;;;;4972432;28;20582;-51
2022/03/31 10:56:26;;;;;;;6.03;2.70;;;19.90;50.40;20.30;99039.00;;;;4971947;28;20189;-53
2022/03/31 10:58:54;;;;;;;6.73;2.40;;;19.90;50.70;20.30;99044.00;;;;4986795;28;20192;-50